createdAt,value
2022-12-25T00:02:02.281Z,8.20
2022-12-25T00:04:28.925Z,8.50
2022-12-25T00:06:56.215Z,8.20
2022-12-25T00:09:22.926Z,8.20
2022-12-25T00:11:49.644Z,8.30
2022-12-25T00:14:16.575Z,8.30
2022-12-25T00:16:43.344Z,8.30
2022-12-25T00:19:10.024Z,9.00
2022-12-25T00:21:36.643Z,8.30
2022-12-25T00:24:03.599Z,8.30
2022-12-25T00:26:30.296Z,8.30
2022-12-25T00:28:58.119Z,8.30
2022-12-25T00:31:26.094Z,8.30
2022-12-25T00:33:53.250Z,8.30
2022-12-25T00:36:21.378Z,8.30
2022-12-25T00:38:48.419Z,8.30
2022-12-25T00:41:17.195Z,8.30
2022-12-25T00:43:44.223Z,8.30
2022-12-25T00:46:12.739Z,8.30
2022-12-25T00:48:41.365Z,8.30
2022-12-25T00:51:11.169Z,8.30
2022-12-25T00:53:37.926Z,8.30
2022-12-25T00:56:06.427Z,8.30
2022-12-25T00:58:34.689Z,8.30
2022-12-25T01:01:02.845Z,8.30
2022-12-25T01:03:30.236Z,8.30
2022-12-25T01:06:02.756Z,8.30
2022-12-25T01:08:30.935Z,8.30
2022-12-25T01:11:03.218Z,8.30
2022-12-25T01:13:30.484Z,8.30
2022-12-25T01:15:57.350Z,8.30
2022-12-25T01:18:25.281Z,8.30
2022-12-25T01:20:52.317Z,8.20
2022-12-25T01:23:19.026Z,8.20
2022-12-25T01:25:45.697Z,8.30
2022-12-25T01:28:12.509Z,8.20
2022-12-25T01:30:39.463Z,8.20
2022-12-25T01:33:06.163Z,8.20
2022-12-25T01:35:32.816Z,8.20
2022-12-25T01:37:59.477Z,8.30
2022-12-25T01:40:26.140Z,8.30
2022-12-25T01:42:52.802Z,8.30
2022-12-25T01:45:39.010Z,8.30
2022-12-25T01:48:10.525Z,8.30
2022-12-25T01:50:37.755Z,8.30
2022-12-25T01:53:04.710Z,8.30
2022-12-25T01:55:32.496Z,8.30
2022-12-25T01:57:59.151Z,8.40
2022-12-25T02:00:25.873Z,8.30
2022-12-25T02:02:52.811Z,8.30
2022-12-25T02:05:27.713Z,8.30
2022-12-25T02:07:54.988Z,8.30
2022-12-25T02:10:21.884Z,8.30
2022-12-25T02:12:49.086Z,8.30
2022-12-25T02:15:19.147Z,8.30
2022-12-25T02:17:45.876Z,8.30
2022-12-25T02:20:47.192Z,8.30
2022-12-25T02:23:42.186Z,8.30
2022-12-25T02:26:11.832Z,8.30
2022-12-25T02:29:17.893Z,8.30
2022-12-25T02:31:55.636Z,8.30
2022-12-25T02:34:40.126Z,8.30
2022-12-25T02:37:07.956Z,8.20
2022-12-25T02:39:58.468Z,8.20
2022-12-25T02:42:53.334Z,8.30
2022-12-25T02:45:44.832Z,8.30
2022-12-25T02:48:31.303Z,8.30
2022-12-25T02:51:18.840Z,8.30
2022-12-25T02:54:06.022Z,8.20
2022-12-25T02:56:54.107Z,8.20
2022-12-25T02:59:40.011Z,8.20
2022-12-25T03:02:26.039Z,8.20
2022-12-25T03:05:13.216Z,8.10
2022-12-25T03:07:42.303Z,8.10
2022-12-25T03:10:29.482Z,8.00
2022-12-25T03:13:09.922Z,7.90
2022-12-25T03:15:55.295Z,7.90
2022-12-25T03:18:24.541Z,7.80
2022-12-25T03:21:10.797Z,7.80
2022-12-25T03:23:58.065Z,7.80
2022-12-25T03:26:46.715Z,7.80
2022-12-25T03:29:36.432Z,7.70
2022-12-25T03:32:29.435Z,7.70
2022-12-25T03:35:25.614Z,7.70
2022-12-25T03:38:44.222Z,7.70
2022-12-25T03:41:38.697Z,7.70
2022-12-25T03:44:48.772Z,7.70
2022-12-25T03:47:48.811Z,7.60
2022-12-25T03:50:52.752Z,7.70
2022-12-25T03:53:43.119Z,7.70
2022-12-25T03:56:29.051Z,7.70
2022-12-25T03:59:22.918Z,7.70
2022-12-25T04:02:09.633Z,7.80
2022-12-25T04:04:55.170Z,7.90
2022-12-25T04:07:40.492Z,7.90
2022-12-25T04:10:26.356Z,8.00
2022-12-25T04:13:11.748Z,8.10
2022-12-25T04:15:57.398Z,8.10
2022-12-25T04:18:42.976Z,8.20
2022-12-25T04:21:28.431Z,8.20
2022-12-25T04:24:13.720Z,8.20
2022-12-25T04:26:59.648Z,8.20
2022-12-25T04:29:45.297Z,8.30
2022-12-25T04:32:30.640Z,8.30
2022-12-25T04:35:16.130Z,8.40
2022-12-25T04:37:42.848Z,8.40
2022-12-25T04:40:09.921Z,8.50
2022-12-25T04:42:36.690Z,8.50
2022-12-25T04:45:03.612Z,8.50
2022-12-25T04:47:30.379Z,8.60
2022-12-25T04:49:57.071Z,8.60
2022-12-25T04:52:23.812Z,8.60
2022-12-25T04:54:50.489Z,8.70
2022-12-25T04:57:17.179Z,8.70
2022-12-25T04:59:43.887Z,8.80
2022-12-25T05:02:10.828Z,8.80
2022-12-25T05:04:37.569Z,8.80
2022-12-25T05:07:04.251Z,8.90
2022-12-25T05:09:30.980Z,8.90
2022-12-25T05:11:57.640Z,8.90
2022-12-25T05:14:24.379Z,8.90
2022-12-25T05:16:51.088Z,8.90
2022-12-25T05:19:17.765Z,8.90
2022-12-25T05:21:44.538Z,9.00
2022-12-25T05:24:11.221Z,9.00
2022-12-25T05:26:37.925Z,9.00
2022-12-25T05:29:04.663Z,9.00
2022-12-25T05:31:31.398Z,9.00
2022-12-25T05:33:58.193Z,9.00
2022-12-25T05:36:24.853Z,9.00
2022-12-25T05:38:51.729Z,9.00
2022-12-25T05:41:18.617Z,9.00
2022-12-25T05:43:45.289Z,9.00
2022-12-25T05:46:13.275Z,9.00
2022-12-25T05:48:40.005Z,9.00
2022-12-25T05:51:08.379Z,9.00
2022-12-25T05:53:35.813Z,9.00
2022-12-25T05:56:04.328Z,9.00
2022-12-25T05:58:32.832Z,9.00
2022-12-25T06:00:59.724Z,9.00
2022-12-25T06:03:26.598Z,9.00
2022-12-25T06:05:53.836Z,9.00
2022-12-25T06:08:20.862Z,9.00
2022-12-25T06:10:47.755Z,9.00
2022-12-25T06:13:14.456Z,9.00
2022-12-25T06:15:42.028Z,9.10
2022-12-25T06:18:09.021Z,9.00
2022-12-25T06:20:35.962Z,9.10
2022-12-25T06:23:02.656Z,9.10
2022-12-25T06:25:29.399Z,9.10
2022-12-25T06:27:56.100Z,9.10
2022-12-25T06:30:22.817Z,9.10
2022-12-25T06:32:49.499Z,9.10
2022-12-25T06:35:16.440Z,9.10
2022-12-25T06:37:43.108Z,9.20
2022-12-25T06:40:10.143Z,9.20
2022-12-25T06:42:36.898Z,9.20
2022-12-25T06:45:03.903Z,9.20
2022-12-25T06:47:30.703Z,9.20
2022-12-25T06:49:57.390Z,9.20
2022-12-25T06:52:24.117Z,9.20
2022-12-25T06:54:52.161Z,9.20
2022-12-25T06:57:19.193Z,9.30
2022-12-25T06:59:49.892Z,9.30
2022-12-25T07:02:22.216Z,9.30
2022-12-25T07:04:49.115Z,9.30
2022-12-25T07:07:15.789Z,9.30
2022-12-25T07:09:42.705Z,9.30
2022-12-25T07:12:20.829Z,9.30
2022-12-25T07:14:50.355Z,9.30
2022-12-25T07:17:17.568Z,9.30
2022-12-25T07:19:45.285Z,9.40
2022-12-25T07:22:13.063Z,9.40
2022-12-25T07:24:39.806Z,9.40
2022-12-25T07:27:06.679Z,9.40
2022-12-25T07:29:33.327Z,9.40
2022-12-25T07:32:01.094Z,9.40
2022-12-25T07:34:27.795Z,9.40
2022-12-25T07:36:55.241Z,9.40
2022-12-25T07:39:22.125Z,9.40
2022-12-25T07:41:48.895Z,9.30
2022-12-25T07:44:16.078Z,9.30
2022-12-25T07:46:43.144Z,9.30
2022-12-25T07:49:10.960Z,9.30
2022-12-25T07:51:37.734Z,9.30
2022-12-25T07:54:04.564Z,9.30
2022-12-25T07:56:31.273Z,9.30
2022-12-25T07:58:58.087Z,9.20
2022-12-25T08:01:26.747Z,9.30
2022-12-25T08:03:55.770Z,9.30
2022-12-25T08:06:24.657Z,9.40
2022-12-25T08:08:51.351Z,9.40
2022-12-25T08:11:18.193Z,9.40
2022-12-25T08:13:44.914Z,9.40
2022-12-25T08:16:11.640Z,9.50
2022-12-25T08:18:39.411Z,9.50
2022-12-25T08:21:11.142Z,9.50
2022-12-25T08:23:40.245Z,9.60
2022-12-25T08:26:08.533Z,9.60
2022-12-25T08:28:36.188Z,9.60
2022-12-25T08:31:29.133Z,9.70
2022-12-25T08:33:58.006Z,9.70
2022-12-25T08:36:25.188Z,9.70
2022-12-25T08:38:54.597Z,9.80
2022-12-25T08:41:25.931Z,9.80
2022-12-25T08:43:52.812Z,9.80
2022-12-25T08:46:19.865Z,9.90
2022-12-25T08:48:47.757Z,9.90
2022-12-25T08:51:17.369Z,9.90
2022-12-25T08:53:45.022Z,9.90
2022-12-25T08:56:12.370Z,9.90
2022-12-25T08:58:39.179Z,9.90
2022-12-25T09:01:06.705Z,9.90
2022-12-25T09:03:33.999Z,10.00
2022-12-25T09:06:15.011Z,10.00
2022-12-25T09:08:48.233Z,10.10
2022-12-25T09:11:17.050Z,10.00
2022-12-25T09:13:43.784Z,10.10
2022-12-25T09:16:17.202Z,10.10
2022-12-25T09:18:43.889Z,10.20
2022-12-25T09:21:12.730Z,10.30
2022-12-25T09:23:40.111Z,10.30
2022-12-25T09:26:16.478Z,10.40
2022-12-25T09:28:52.082Z,10.40
2022-12-25T09:31:22.021Z,10.50
2022-12-25T09:33:51.496Z,10.60
2022-12-25T09:36:18.661Z,10.70
2022-12-25T09:38:45.755Z,10.80
2022-12-25T09:42:03.169Z,10.90
2022-12-25T09:44:45.094Z,11.10
2022-12-25T09:47:18.399Z,11.10
2022-12-25T09:50:17.379Z,11.30
2022-12-25T09:52:59.430Z,11.40
2022-12-25T09:55:39.212Z,11.60
2022-12-25T09:58:12.533Z,11.60
2022-12-25T10:00:47.952Z,11.70
2022-12-25T10:03:24.093Z,11.70
2022-12-25T10:06:21.943Z,11.70
2022-12-25T10:09:17.701Z,11.70
2022-12-25T10:11:50.835Z,11.70
2022-12-25T10:14:36.427Z,11.70
2022-12-25T10:17:40.187Z,11.70
2022-12-25T10:20:08.714Z,11.70
2022-12-25T10:22:45.672Z,11.70
2022-12-25T10:25:19.473Z,13.30
2022-12-25T10:27:50.977Z,11.80
2022-12-25T10:30:20.535Z,11.80
2022-12-25T10:32:47.637Z,12.00
2022-12-25T10:35:17.375Z,12.00
2022-12-25T10:37:46.035Z,12.10
2022-12-25T10:40:37.619Z,12.70
2022-12-25T10:43:12.613Z,12.30
2022-12-25T10:45:48.079Z,12.40
2022-12-25T10:48:24.396Z,12.50
2022-12-25T10:50:58.088Z,12.50
2022-12-25T10:53:30.155Z,12.60
2022-12-25T10:56:06.385Z,12.60
2022-12-25T10:58:34.999Z,13.00
2022-12-25T11:01:10.258Z,12.80
2022-12-25T11:03:42.113Z,12.70
2022-12-25T11:06:23.274Z,12.60
2022-12-25T11:09:01.524Z,14.20
2022-12-25T11:11:29.361Z,12.20
2022-12-25T11:14:02.603Z,12.60
2022-12-25T11:16:32.249Z,12.60
2022-12-25T11:19:03.951Z,12.70
2022-12-25T11:21:41.070Z,12.70
2022-12-25T11:24:23.552Z,12.70
2022-12-25T11:26:57.729Z,12.80
2022-12-25T11:29:47.042Z,12.80
2022-12-25T11:32:25.732Z,12.80
2022-12-25T11:34:54.226Z,12.80
2022-12-25T11:37:46.109Z,12.80
2022-12-25T11:40:25.945Z,12.80
2022-12-25T11:43:13.833Z,12.90
2022-12-25T11:45:46.976Z,13.00
2022-12-25T11:48:44.805Z,13.10
2022-12-25T11:51:15.873Z,13.30
2022-12-25T11:53:57.720Z,13.50
2022-12-25T11:56:30.351Z,13.60
2022-12-25T11:59:03.385Z,13.80
2022-12-25T12:04:42.881Z,13.90
2022-12-25T12:07:27.680Z,14.00
2022-12-25T12:10:17.572Z,14.10
2022-12-25T12:12:55.069Z,14.20
2022-12-25T12:15:31.945Z,14.30
2022-12-25T12:18:23.808Z,14.30
2022-12-25T12:21:12.004Z,14.30
2022-12-25T12:24:07.344Z,14.30
2022-12-25T12:26:38.216Z,14.30
2022-12-25T12:29:11.051Z,14.20
2022-12-25T12:31:47.864Z,14.00
2022-12-25T12:34:27.445Z,14.10
2022-12-25T12:37:24.668Z,14.00
2022-12-25T12:40:11.011Z,14.10
2022-12-25T12:42:56.177Z,14.10
2022-12-25T12:45:33.785Z,14.10
2022-12-25T12:48:01.519Z,14.10
2022-12-25T12:50:32.772Z,14.00
2022-12-25T12:53:06.149Z,14.00
2022-12-25T12:55:38.882Z,14.00
2022-12-25T12:58:24.757Z,14.00
2022-12-25T13:01:05.409Z,13.90
2022-12-25T13:03:56.471Z,13.90
2022-12-25T13:06:38.011Z,13.90
2022-12-25T13:09:20.046Z,13.90
2022-12-25T13:11:55.086Z,13.90
2022-12-25T13:14:26.470Z,13.90
2022-12-25T13:16:56.924Z,13.90
2022-12-25T13:19:29.555Z,13.90
2022-12-25T13:22:08.125Z,13.80
2022-12-25T13:24:44.419Z,13.80
2022-12-25T13:27:30.514Z,13.80
2022-12-25T13:30:12.199Z,13.80
2022-12-25T13:32:41.521Z,14.20
2022-12-25T13:35:17.156Z,13.80
2022-12-25T13:37:49.064Z,13.80
2022-12-25T13:41:10.894Z,13.70
2022-12-25T13:43:39.367Z,13.70
2022-12-25T13:46:14.196Z,13.60
2022-12-25T13:48:42.529Z,13.50
2022-12-25T13:51:18.721Z,13.50
2022-12-25T13:53:55.113Z,13.40
2022-12-25T13:56:32.083Z,13.40
2022-12-25T13:59:02.943Z,13.30
2022-12-25T14:01:38.152Z,13.30
2022-12-25T14:04:09.169Z,13.20
2022-12-25T14:06:36.737Z,13.10
2022-12-25T14:09:10.536Z,13.00
2022-12-25T14:11:37.861Z,12.90
2022-12-25T14:14:29.802Z,12.90
2022-12-25T14:16:58.456Z,12.80
2022-12-25T14:19:34.894Z,12.70
2022-12-25T14:22:12.681Z,12.60
2022-12-25T14:24:46.334Z,12.50
2022-12-25T14:27:33.940Z,12.50
2022-12-25T14:30:13.348Z,12.40
2022-12-25T14:32:43.961Z,11.80
2022-12-25T14:35:14.786Z,12.30
2022-12-25T14:38:00.541Z,12.20
2022-12-25T14:40:31.402Z,12.20
2022-12-25T14:43:03.299Z,13.80
2022-12-25T14:45:43.419Z,10.90
2022-12-25T14:48:25.229Z,12.10
2022-12-25T14:51:04.131Z,12.00
2022-12-25T14:53:41.236Z,11.90
2022-12-25T14:56:10.197Z,12.00
2022-12-25T14:58:57.083Z,11.90
2022-12-25T15:01:57.522Z,11.90
2022-12-25T15:04:25.349Z,11.90
2022-12-25T15:06:58.028Z,11.80
2022-12-25T15:09:25.454Z,11.80
2022-12-25T15:11:55.381Z,11.80
2022-12-25T15:14:23.543Z,11.80
2022-12-25T15:16:58.098Z,11.80
2022-12-25T15:19:36.542Z,11.80
2022-12-25T15:22:04.419Z,11.80
2022-12-25T15:24:31.151Z,11.70
2022-12-25T15:27:00.357Z,11.70
2022-12-25T15:32:18.459Z,11.70
2022-12-25T15:34:47.216Z,11.70
2022-12-25T15:37:14.655Z,11.70
2022-12-25T15:39:41.685Z,11.60
2022-12-25T15:42:17.457Z,11.70
2022-12-25T15:44:45.262Z,11.70
2022-12-25T15:47:13.880Z,11.70
2022-12-25T15:49:40.928Z,11.70
2022-12-25T15:52:10.287Z,11.70
2022-12-25T15:54:37.243Z,11.70
2022-12-25T15:57:06.547Z,11.60
2022-12-25T15:59:33.525Z,11.60
2022-12-25T16:02:01.626Z,11.60
2022-12-25T16:04:31.443Z,11.60
2022-12-25T16:06:59.021Z,11.60
2022-12-25T16:09:27.471Z,11.60
2022-12-25T16:11:54.364Z,11.60
2022-12-25T16:14:21.879Z,11.70
2022-12-25T16:16:48.632Z,11.70
2022-12-25T16:19:15.323Z,11.70
2022-12-25T16:21:45.132Z,11.70
2022-12-25T16:24:12.511Z,11.70
2022-12-25T16:26:39.648Z,11.70
2022-12-25T16:29:08.019Z,11.70
2022-12-25T16:31:35.846Z,11.70
2022-12-25T16:34:02.914Z,11.70
2022-12-25T16:36:29.638Z,11.70
2022-12-25T16:38:56.402Z,11.60
2022-12-25T16:41:23.244Z,11.60
2022-12-25T16:43:49.989Z,11.60
2022-12-25T16:46:20.572Z,11.60
2022-12-25T16:48:47.530Z,11.50
2022-12-25T16:51:16.925Z,11.40
2022-12-25T16:53:44.215Z,11.40
2022-12-25T16:56:16.738Z,11.30
2022-12-25T16:58:47.551Z,11.30
2022-12-25T17:01:17.407Z,11.20
2022-12-25T17:03:44.600Z,11.10
2022-12-25T17:06:20.528Z,11.10
2022-12-25T17:08:47.550Z,11.00
2022-12-25T17:11:14.776Z,11.00
2022-12-25T17:13:45.467Z,11.00
2022-12-25T17:16:17.255Z,11.00
2022-12-25T17:18:44.333Z,11.00
2022-12-25T17:21:11.442Z,11.00
2022-12-25T17:23:38.515Z,11.00
2022-12-25T17:26:05.452Z,11.00
2022-12-25T17:28:34.341Z,11.00
2022-12-25T17:31:06.589Z,11.00
2022-12-25T17:33:36.476Z,11.00
2022-12-25T17:36:04.419Z,11.10
2022-12-25T17:38:32.020Z,11.10
2022-12-25T17:40:59.871Z,11.20
2022-12-25T17:43:26.584Z,11.20
2022-12-25T17:45:53.293Z,11.20
2022-12-25T17:48:20.281Z,11.20
2022-12-25T17:50:47.304Z,11.10
2022-12-25T17:53:14.111Z,11.10
2022-12-25T17:55:41.303Z,11.00
2022-12-25T17:58:09.083Z,11.00
2022-12-25T18:00:36.553Z,11.00
2022-12-25T18:03:10.765Z,11.00
2022-12-25T18:05:38.136Z,10.90
2022-12-25T18:08:05.354Z,10.90
2022-12-25T18:10:39.485Z,10.90
2022-12-25T18:13:06.621Z,10.90
2022-12-25T18:15:39.798Z,10.90
2022-12-25T18:18:07.698Z,10.90
2022-12-25T18:20:39.850Z,10.90
2022-12-25T18:23:07.708Z,10.80
2022-12-25T18:25:34.553Z,10.80
2022-12-25T18:28:02.737Z,10.90
2022-12-25T18:30:29.796Z,11.00
2022-12-25T18:32:56.624Z,11.00
2022-12-25T18:35:28.930Z,11.00
2022-12-25T18:37:55.995Z,11.10
2022-12-25T18:40:23.090Z,11.10
2022-12-25T18:42:52.320Z,11.10
2022-12-25T18:45:21.515Z,11.10
2022-12-25T18:47:48.331Z,11.10
2022-12-25T18:50:15.232Z,11.10
2022-12-25T18:52:49.173Z,11.10
2022-12-25T18:55:18.023Z,11.10
2022-12-25T18:57:44.725Z,11.10
2022-12-25T19:00:11.662Z,11.10
2022-12-25T19:02:39.369Z,11.10
2022-12-25T19:05:07.018Z,11.10
2022-12-25T19:07:34.384Z,11.10
2022-12-25T19:10:03.848Z,11.10
2022-12-25T19:12:31.585Z,11.10
2022-12-25T19:14:59.151Z,11.00
2022-12-25T19:17:31.504Z,11.00
2022-12-25T19:19:59.066Z,11.10
2022-12-25T19:22:25.901Z,11.10
2022-12-25T19:24:52.584Z,11.10
2022-12-25T19:27:19.241Z,11.20
2022-12-25T19:29:45.959Z,11.20
2022-12-25T19:32:12.645Z,11.20
2022-12-25T19:34:39.310Z,11.20
2022-12-25T19:37:06.332Z,11.20
2022-12-25T19:39:33.082Z,11.20
2022-12-25T19:41:59.772Z,11.10
2022-12-25T19:44:26.488Z,11.10
2022-12-25T19:46:53.457Z,11.10
2022-12-25T19:49:24.869Z,11.10
2022-12-25T19:51:54.743Z,11.10
2022-12-25T19:54:21.510Z,11.10
2022-12-25T19:56:49.244Z,11.00
2022-12-25T19:59:15.948Z,11.10
2022-12-25T20:01:42.889Z,11.10
2022-12-25T20:04:10.362Z,11.10
2022-12-25T20:06:40.269Z,11.10
2022-12-25T20:09:20.625Z,11.10
2022-12-25T20:11:48.310Z,11.20
2022-12-25T20:14:16.433Z,11.20
2022-12-25T20:16:43.442Z,11.20
2022-12-25T20:19:12.165Z,11.20
2022-12-25T20:21:39.337Z,11.20
2022-12-25T20:24:10.017Z,11.20
2022-12-25T20:26:37.872Z,11.20
2022-12-25T20:29:04.899Z,11.20
2022-12-25T20:31:33.904Z,11.20
2022-12-25T20:34:05.324Z,11.30
2022-12-25T20:36:36.751Z,11.20
2022-12-25T20:39:05.992Z,11.20
2022-12-25T20:41:32.678Z,11.20
2022-12-25T20:43:59.907Z,11.20
2022-12-25T20:46:27.040Z,11.10
2022-12-25T20:48:54.271Z,11.10
2022-12-25T20:51:22.847Z,11.00
2022-12-25T20:53:49.824Z,11.00
2022-12-25T20:56:18.843Z,11.00
2022-12-25T20:58:45.684Z,11.00
2022-12-25T21:01:17.420Z,11.00
2022-12-25T21:03:45.068Z,11.00
2022-12-25T21:06:12.403Z,10.90
2022-12-25T21:08:40.646Z,11.00
2022-12-25T21:11:08.151Z,11.30
2022-12-25T21:13:37.852Z,11.00
2022-12-25T21:16:06.472Z,11.00
2022-12-25T21:18:33.179Z,10.90
2022-12-25T21:21:04.699Z,10.90
2022-12-25T21:23:31.637Z,10.90
2022-12-25T21:25:58.391Z,10.90
2022-12-25T21:28:30.116Z,10.90
2022-12-25T21:31:05.001Z,10.90
2022-12-25T21:33:50.179Z,11.00
2022-12-25T21:36:17.251Z,11.00
2022-12-25T21:38:45.459Z,11.00
2022-12-25T21:41:13.534Z,11.00
2022-12-25T21:43:41.054Z,11.00
2022-12-25T21:46:10.768Z,11.00
2022-12-25T21:48:38.142Z,10.90
2022-12-25T21:51:29.911Z,10.90
2022-12-25T21:53:57.748Z,10.90
2022-12-25T21:56:25.579Z,10.90
2022-12-25T21:58:52.251Z,10.90
2022-12-25T22:01:19.103Z,10.90
2022-12-25T22:03:46.366Z,10.90
2022-12-25T22:06:31.892Z,10.90
2022-12-25T22:08:58.625Z,10.90
2022-12-25T22:11:44.476Z,11.00
2022-12-25T22:14:52.072Z,11.00
2022-12-25T22:17:49.968Z,11.00
2022-12-25T22:20:26.819Z,11.00
2022-12-25T22:22:54.219Z,11.00
2022-12-25T22:25:21.527Z,11.00
2022-12-25T22:27:49.067Z,11.00
2022-12-25T22:30:18.384Z,11.00
2022-12-25T22:32:46.364Z,11.00
2022-12-25T22:35:14.236Z,10.90
2022-12-25T22:37:42.045Z,10.90
2022-12-25T22:40:11.176Z,10.80
2022-12-25T22:42:37.919Z,10.80
2022-12-25T22:45:05.391Z,10.70
2022-12-25T22:47:32.279Z,10.70
2022-12-25T22:49:58.997Z,10.70
2022-12-25T22:52:25.697Z,10.60
2022-12-25T22:54:52.394Z,10.60
2022-12-25T22:57:19.542Z,10.80
2022-12-25T22:59:46.230Z,10.90
2022-12-25T23:02:13.137Z,11.00
2022-12-25T23:04:39.923Z,11.20
2022-12-25T23:07:07.224Z,11.20
2022-12-25T23:09:34.429Z,11.30
2022-12-25T23:12:01.131Z,11.40
2022-12-25T23:14:39.905Z,11.40
2022-12-25T23:17:29.748Z,11.40
2022-12-25T23:20:16.591Z,11.50
2022-12-25T23:23:02.002Z,11.50
2022-12-25T23:25:47.427Z,11.50
2022-12-25T23:28:14.272Z,11.60
2022-12-25T23:30:41.021Z,11.50
2022-12-25T23:33:07.692Z,11.60
2022-12-25T23:35:34.425Z,11.60
2022-12-25T23:38:01.158Z,11.60
2022-12-25T23:40:27.923Z,11.70
2022-12-25T23:42:54.625Z,11.70
2022-12-25T23:45:21.333Z,11.70
2022-12-25T23:47:48.378Z,11.60
2022-12-25T23:50:15.230Z,11.60
2022-12-25T23:52:41.971Z,11.60
2022-12-25T23:55:09.077Z,11.60
2022-12-25T23:57:35.760Z,11.70
